createdAt,value
2019-04-26T12:33:43.727Z,0.11
2019-04-26T12:34:36.694Z,0.06
2019-04-26T12:35:37.100Z,1.09
2019-04-26T12:36:37.269Z,0.75
2019-04-26T12:37:37.675Z,1.25
2019-04-26T12:38:37.961Z,0.62
2019-04-26T12:39:38.285Z,1.89
2019-04-26T12:40:38.495Z,2.39
2019-04-26T12:41:40.739Z,0.48
2019-04-26T12:42:38.880Z,0.00
2019-04-26T12:43:39.270Z,0.60
2019-04-26T12:44:41.242Z,0.50
2019-04-26T12:45:39.877Z,0.66
2019-04-26T12:46:40.068Z,0.42
2019-04-26T12:47:40.240Z,1.36
2019-04-26T12:48:40.737Z,1.96
2019-04-26T12:49:40.991Z,0.72
2019-04-26T12:50:41.237Z,1.42
2019-04-26T12:51:42.797Z,2.31
2019-04-26T12:52:41.800Z,1.58
2019-04-26T12:53:42.327Z,1.89
2019-04-26T12:54:42.994Z,1.69
2019-04-26T12:55:42.799Z,1.44
2019-04-26T12:56:43.299Z,0.64
2019-04-26T12:57:43.730Z,0.48
2019-04-26T12:58:45.736Z,0.91
2019-04-26T12:59:44.713Z,0.95
2019-04-26T13:00:53.682Z,0.57
2019-04-26T13:01:46.381Z,1.52
2019-04-26T13:02:45.712Z,0.57
2019-04-26T13:03:45.978Z,0.14
2019-04-26T13:04:45.980Z,1.24
2019-04-26T13:05:49.794Z,0.70
2019-04-26T13:06:46.593Z,0.75
2019-04-26T13:08:47.257Z,0.62
2019-04-26T13:09:46.990Z,1.01
2019-04-26T13:10:47.126Z,0.76
2019-04-26T13:11:49.078Z,1.57
2019-04-26T13:12:47.682Z,1.20
2019-04-26T13:13:50.840Z,0.98
2019-04-26T13:14:48.370Z,0.22
2019-04-26T13:15:50.469Z,0.29
2019-04-26T13:16:48.845Z,1.10
2019-04-26T13:17:49.321Z,1.26
2019-04-26T13:18:49.265Z,1.06
2019-04-26T13:19:53.968Z,1.16
2019-04-26T13:20:50.378Z,1.43
2019-04-26T13:21:50.311Z,1.44
2019-04-26T13:22:54.174Z,1.04
2019-04-26T13:23:51.207Z,1.43
2019-04-26T13:24:51.754Z,0.94
2019-04-26T13:25:51.668Z,1.30
2019-04-26T13:26:51.921Z,1.92
2019-04-26T13:27:52.175Z,1.07
2019-04-26T13:28:56.950Z,1.43
2019-04-26T13:30:01.922Z,1.47
2019-04-26T13:30:52.796Z,1.02
2019-04-26T13:31:53.245Z,1.24
2019-04-26T13:32:54.820Z,0.38
2019-04-26T13:33:54.116Z,2.27
2019-04-26T13:34:54.498Z,2.48
2019-04-26T13:36:54.787Z,0.82
2019-04-26T13:37:55.143Z,1.57
2019-04-26T13:38:55.489Z,2.04
2019-04-26T13:39:56.732Z,1.53
2019-04-26T13:40:59.439Z,0.69
2019-04-26T13:42:02.919Z,0.97
2019-04-26T13:42:56.504Z,0.59
2019-04-26T13:43:57.225Z,0.52
2019-04-26T13:44:57.140Z,0.72
2019-04-26T13:45:57.170Z,0.75
2019-04-26T13:46:57.275Z,1.17
2019-04-26T13:47:57.682Z,1.31
2019-04-26T13:48:57.671Z,0.79
2019-04-26T13:49:58.078Z,0.06
2019-04-26T13:51:01.411Z,0.67
2019-04-26T13:51:58.862Z,1.15
2019-04-26T13:52:59.098Z,0.52
2019-04-26T13:53:59.398Z,0.73
2019-04-26T13:54:59.846Z,0.56
2019-04-26T13:56:02.163Z,1.01
2019-04-26T13:57:00.522Z,0.77
2019-04-26T13:58:00.864Z,1.15
2019-04-26T13:59:01.368Z,2.71
2019-04-26T14:00:02.565Z,1.47
2019-04-26T14:01:02.202Z,0.41
2019-04-26T14:02:11.227Z,2.17
2019-04-26T14:03:02.375Z,2.44
2019-04-26T14:04:06.778Z,0.55
2019-04-26T14:05:02.361Z,1.51
2019-04-26T14:06:02.979Z,2.52
2019-04-26T14:07:03.069Z,1.81
2019-04-26T14:08:03.135Z,2.71
2019-04-26T14:09:03.257Z,3.00
2019-04-26T14:10:03.685Z,1.95
2019-04-26T14:11:03.617Z,0.85
2019-04-26T14:12:17.809Z,0.44
2019-04-26T14:13:04.250Z,1.42
2019-04-26T14:14:04.330Z,1.16
2019-04-26T14:15:04.619Z,2.00
2019-04-26T14:16:04.695Z,2.15
2019-04-26T14:17:04.805Z,1.26
2019-04-26T14:18:05.368Z,1.39
2019-04-26T14:19:05.091Z,2.38
2019-04-26T14:20:05.661Z,1.74
2019-04-26T14:21:05.638Z,1.61
2019-04-26T14:22:07.123Z,0.99
2019-04-26T14:23:06.412Z,0.63
2019-04-26T14:24:06.864Z,1.40
2019-04-26T14:25:07.412Z,1.72
2019-04-26T14:26:07.399Z,1.25
2019-04-26T14:27:10.455Z,1.94
2019-04-26T14:28:07.792Z,1.78
2019-04-26T14:29:08.052Z,0.84
2019-04-26T14:30:08.535Z,1.28
2019-04-26T14:31:12.253Z,0.73
2019-04-26T14:32:09.641Z,0.93
2019-04-26T14:33:08.888Z,1.87
2019-04-26T14:34:11.946Z,1.24
2019-04-26T14:35:11.351Z,0.70
2019-04-26T14:36:17.436Z,1.24
2019-04-26T14:37:11.151Z,0.89
2019-04-26T14:38:10.083Z,1.80
2019-04-26T14:39:14.347Z,2.23
2019-04-26T14:40:17.274Z,0.85
2019-04-26T14:41:13.295Z,2.86
2019-04-26T14:42:11.248Z,2.19
2019-04-26T14:43:11.391Z,2.91
2019-04-26T14:44:15.613Z,1.46
2019-04-26T14:45:23.286Z,1.61
2019-04-26T14:46:14.617Z,0.96
2019-04-26T14:47:14.809Z,3.74
2019-04-26T14:48:20.747Z,3.59
2019-04-26T14:49:13.011Z,2.56
2019-04-26T14:50:14.160Z,2.92
2019-04-26T14:51:16.756Z,2.43
2019-04-26T14:52:13.654Z,1.91
2019-04-26T14:53:13.914Z,1.54
2019-04-26T14:54:14.352Z,1.07
2019-04-26T14:55:16.492Z,1.35
2019-04-26T14:56:15.051Z,1.04
2019-04-26T14:57:19.906Z,0.79
2019-04-26T14:58:15.645Z,0.84
2019-04-26T14:59:15.453Z,0.65
2019-04-26T15:00:16.723Z,1.54
2019-04-26T15:01:15.999Z,1.17
2019-04-26T15:02:16.293Z,2.34
2019-04-26T15:03:17.351Z,1.49
2019-04-26T15:04:16.379Z,2.61
2019-04-26T15:05:16.451Z,1.06
2019-04-26T15:06:20.322Z,1.39
2019-04-26T15:07:16.768Z,2.61
2019-04-26T15:08:17.021Z,3.01
2019-04-26T15:09:20.079Z,2.35
2019-04-26T15:10:18.985Z,3.49
2019-04-26T15:11:18.002Z,2.34
2019-04-26T15:12:18.457Z,1.22
2019-04-26T15:13:20.925Z,3.31
2019-04-26T15:14:20.612Z,2.00
2019-04-26T15:15:18.940Z,1.80
2019-04-26T15:16:22.048Z,1.32
2019-04-26T15:17:20.810Z,1.35
2019-04-26T15:18:19.762Z,1.56
2019-04-26T15:19:20.023Z,0.70
2019-04-26T15:20:20.934Z,1.20
2019-04-26T15:21:20.300Z,2.46
2019-04-26T15:22:20.729Z,1.28
2019-04-26T15:23:23.897Z,1.87
2019-04-26T15:24:22.598Z,1.90
2019-04-26T15:25:21.463Z,1.19
2019-04-26T15:26:24.249Z,2.05
2019-04-26T15:27:21.598Z,1.08
2019-04-26T15:28:22.259Z,0.97
2019-04-26T15:29:26.905Z,1.13
2019-04-26T15:30:23.952Z,0.64
2019-04-26T15:31:25.004Z,1.06
2019-04-26T15:32:24.073Z,1.46
2019-04-26T15:33:23.070Z,1.31
2019-04-26T15:34:26.422Z,1.28
2019-04-26T15:35:23.816Z,1.07
2019-04-26T15:36:24.077Z,0.63
2019-04-26T15:37:28.291Z,0.45
2019-04-26T15:38:24.950Z,1.17
2019-04-26T15:39:25.260Z,0.63
2019-04-26T15:40:27.431Z,0.03
2019-04-26T15:41:25.702Z,0.00
2019-04-26T15:42:29.306Z,0.11
2019-04-26T15:43:25.772Z,0.10
2019-04-26T15:44:28.230Z,1.21
2019-04-26T15:45:26.208Z,1.10
2019-04-26T15:46:26.529Z,1.03
2019-04-26T15:47:26.711Z,0.86
2019-04-26T15:48:26.888Z,1.00
2019-04-26T15:49:29.758Z,1.14
2019-04-26T15:50:27.277Z,0.34
2019-04-26T15:51:27.643Z,0.66
2019-04-26T15:52:30.069Z,2.98
2019-04-26T15:53:28.185Z,2.61
2019-04-26T15:54:28.452Z,1.66
2019-04-26T15:55:33.893Z,1.35
2019-04-26T15:56:29.228Z,0.69
2019-04-26T15:57:32.369Z,0.93
2019-04-26T15:58:29.528Z,0.23
2019-04-26T15:59:29.609Z,0.41
2019-04-26T16:00:32.746Z,1.79
2019-04-26T16:01:30.327Z,1.31
2019-04-26T16:02:32.032Z,0.89
2019-04-26T16:03:30.731Z,1.00
2019-04-26T16:04:32.430Z,1.10
2019-04-26T16:05:32.709Z,1.63
2019-04-26T16:06:32.319Z,0.03
2019-04-26T16:07:34.239Z,0.34
2019-04-26T16:08:33.979Z,0.37
2019-04-26T16:09:32.645Z,0.46
2019-04-26T16:10:36.816Z,1.71
2019-04-26T16:11:32.293Z,2.79
2019-04-26T16:12:32.555Z,1.66
2019-04-26T16:13:32.889Z,1.54
2019-04-26T16:14:36.628Z,2.01
2019-04-26T16:15:33.432Z,1.00
2019-04-26T16:16:34.671Z,0.77
2019-04-26T16:17:36.251Z,1.68
2019-04-26T16:18:34.713Z,1.09
2019-04-26T16:19:34.967Z,1.74
2019-04-26T16:20:38.063Z,0.87
2019-04-26T16:21:35.843Z,0.73
2019-04-26T16:22:36.069Z,2.46
2019-04-26T16:23:41.195Z,1.83
2019-04-26T16:24:36.913Z,1.39
2019-04-26T16:25:38.305Z,1.07
2019-04-26T16:26:36.888Z,2.68
2019-04-26T16:27:37.352Z,1.56
2019-04-26T16:28:38.315Z,1.35
2019-04-26T16:29:37.905Z,1.51
2019-04-26T16:30:38.171Z,0.79
2019-04-26T16:31:42.136Z,1.52
2019-04-26T16:32:38.486Z,1.11
2019-04-26T16:33:38.941Z,1.75
2019-04-26T16:34:41.698Z,1.15
2019-04-26T16:35:39.131Z,1.63
2019-04-26T16:36:43.883Z,1.08
2019-04-26T16:37:39.659Z,1.10
2019-04-26T16:38:40.094Z,0.34
2019-04-26T16:39:40.692Z,0.74
2019-04-26T16:40:43.511Z,0.34
2019-04-26T16:41:42.143Z,0.72
2019-04-26T16:42:41.172Z,2.61
2019-04-26T16:43:52.218Z,0.83
2019-04-26T16:44:44.954Z,1.73
2019-04-26T16:45:42.986Z,1.43
2019-04-26T16:46:43.834Z,0.96
2019-04-26T16:47:47.341Z,0.23
2019-04-26T16:48:44.623Z,0.08
2019-04-26T16:49:46.229Z,0.59
2019-04-26T16:50:46.177Z,0.92
2019-04-26T16:51:43.856Z,0.17
2019-04-26T16:52:47.775Z,0.42
2019-04-26T16:54:02.467Z,1.14
2019-04-26T16:54:44.424Z,1.11
2019-04-26T16:55:52.330Z,0.86
2019-04-26T16:56:44.924Z,0.08
2019-04-26T16:57:54.891Z,0.00
2019-04-26T16:58:45.562Z,0.00
2019-04-26T16:59:50.952Z,0.16
2019-04-26T17:00:51.441Z,0.58
2019-04-26T17:01:47.498Z,0.00
2019-04-26T17:02:46.197Z,0.00
2019-04-26T17:03:48.200Z,0.00
2019-04-26T17:04:46.779Z,0.00
2019-04-26T17:05:48.731Z,0.00
2019-04-26T17:06:47.572Z,0.00
2019-04-26T17:07:47.406Z,0.00
2019-04-26T17:08:49.948Z,0.01
2019-04-26T17:09:57.914Z,0.28
2019-04-26T17:10:48.298Z,0.77
2019-04-26T17:11:48.707Z,0.23
2019-04-26T17:12:50.681Z,1.16
2019-04-26T17:13:53.481Z,0.96
2019-04-26T17:14:49.951Z,0.50
2019-04-26T17:15:52.010Z,1.25
2019-04-26T17:16:50.461Z,0.96
2019-04-26T17:17:52.634Z,0.48
2019-04-26T17:18:50.976Z,0.30
2019-04-26T17:19:52.196Z,0.36
2019-04-26T17:20:53.117Z,0.48
2019-04-26T17:21:52.414Z,0.00
2019-04-26T17:22:59.549Z,0.51
2019-04-26T17:23:53.035Z,0.80
2019-04-26T17:24:53.389Z,0.59
2019-04-26T17:25:55.195Z,1.03
2019-04-26T17:26:52.942Z,1.05
2019-04-26T17:27:53.034Z,1.12
2019-04-26T17:28:55.568Z,1.10
2019-04-26T17:29:53.616Z,0.87
2019-04-26T17:30:53.962Z,0.97
2019-04-26T17:31:54.207Z,1.08
2019-04-26T17:32:55.314Z,0.28
2019-04-26T17:33:54.868Z,0.00
2019-04-26T17:34:55.116Z,0.48
2019-04-26T17:35:55.491Z,0.08
2019-04-26T17:36:55.879Z,1.12
2019-04-26T17:37:57.454Z,0.03
2019-04-26T17:38:56.791Z,0.34
2019-04-26T17:39:57.036Z,0.50
2019-04-26T17:40:57.412Z,0.39
2019-04-26T17:41:57.869Z,0.25
2019-04-26T17:42:58.163Z,0.00
2019-04-26T17:44:08.403Z,0.00
2019-04-26T17:45:03.994Z,0.21
2019-04-26T17:45:59.245Z,0.07
2019-04-26T17:47:01.939Z,0.55
2019-04-26T17:48:01.441Z,0.24
2019-04-26T17:49:00.552Z,1.01
2019-04-26T17:50:04.550Z,1.33
2019-04-26T17:51:00.817Z,0.95
2019-04-26T17:52:01.979Z,0.11
2019-04-26T17:53:01.781Z,0.27
2019-04-26T17:54:21.038Z,0.14
2019-04-26T17:55:02.520Z,0.20
2019-04-26T17:56:02.727Z,0.13
2019-04-26T17:57:04.227Z,0.00
2019-04-26T17:58:11.979Z,0.00
2019-04-26T17:59:08.998Z,0.35
2019-04-26T18:00:07.886Z,0.78
2019-04-26T18:01:03.832Z,0.54
2019-04-26T18:02:03.100Z,0.93
2019-04-26T18:03:03.430Z,0.00
2019-04-26T18:04:03.874Z,0.27
2019-04-26T18:05:03.908Z,0.17
2019-04-26T18:06:03.907Z,0.00
2019-04-26T18:07:33.379Z,0.00
2019-04-26T18:08:32.801Z,0.11
2019-04-26T18:09:04.558Z,0.37
2019-04-26T18:10:06.402Z,0.00
2019-04-26T18:11:05.511Z,0.07
2019-04-26T18:12:05.785Z,0.21
2019-04-26T18:13:11.320Z,0.00
2019-04-26T18:14:08.189Z,0.07
2019-04-26T18:15:10.365Z,0.57
2019-04-26T18:16:07.360Z,0.36
2019-04-26T18:17:07.642Z,0.62
2019-04-26T18:18:09.727Z,0.49
2019-04-26T18:19:07.980Z,0.08
2019-04-26T18:20:08.468Z,0.11
2019-04-26T18:21:08.559Z,0.21
2019-04-26T18:22:08.585Z,0.04
2019-04-26T18:23:10.251Z,0.90
2019-04-26T18:24:09.123Z,0.79
2019-04-26T18:25:12.553Z,0.37
2019-04-26T18:26:10.018Z,0.17
2019-04-26T18:27:10.093Z,0.30
2019-04-26T18:28:14.707Z,0.49
2019-04-26T18:29:10.478Z,0.06
2019-04-26T18:30:12.221Z,0.00
2019-04-26T18:31:10.944Z,0.00
2019-04-26T18:32:12.885Z,0.00
2019-04-26T18:33:11.425Z,0.00
2019-04-26T18:34:12.823Z,0.28
2019-04-26T18:35:15.312Z,0.00
2019-04-26T18:36:13.122Z,0.20
2019-04-26T18:37:13.287Z,0.37
2019-04-26T18:38:13.459Z,0.73
2019-04-26T18:39:12.809Z,0.77
2019-04-26T18:40:13.122Z,0.39
2019-04-26T18:41:13.729Z,0.74
2019-04-26T18:42:14.005Z,0.60
2019-04-26T18:43:17.656Z,0.07
2019-04-26T18:44:14.565Z,0.68
2019-04-26T18:45:21.237Z,0.45
2019-04-26T18:46:15.117Z,0.75
2019-04-26T18:47:20.601Z,0.58
2019-04-26T18:48:15.324Z,0.54
2019-04-26T18:49:19.874Z,0.07
2019-04-26T18:50:16.403Z,0.98
2019-04-26T18:51:16.174Z,0.59
2019-04-26T18:52:19.362Z,0.66
2019-04-26T18:53:19.590Z,0.73
2019-04-26T18:54:17.904Z,0.59
2019-04-26T18:55:17.245Z,0.95
2019-04-26T18:56:17.576Z,0.15
2019-04-26T18:57:18.126Z,0.67
2019-04-26T18:58:18.263Z,1.03
2019-04-26T18:59:18.638Z,0.11
2019-04-26T19:00:21.509Z,0.42
2019-04-26T19:01:19.082Z,0.77
2019-04-26T19:02:19.864Z,0.45
2019-04-26T19:03:19.907Z,0.53
2019-04-26T19:04:19.816Z,0.68
2019-04-26T19:05:26.967Z,0.20
2019-04-26T19:06:31.002Z,0.35
2019-04-26T19:07:31.408Z,0.42
2019-04-26T19:08:26.995Z,0.34
2019-04-26T19:09:21.283Z,0.42
2019-04-26T19:10:21.636Z,0.83
2019-04-26T19:11:21.786Z,0.56
2019-04-26T19:12:23.408Z,0.56
2019-04-26T19:13:22.219Z,0.63
2019-04-26T19:14:22.035Z,0.31
2019-04-26T19:15:22.570Z,0.31
2019-04-26T19:16:23.041Z,0.04
2019-04-26T19:17:26.017Z,0.28
2019-04-26T19:18:23.236Z,0.06
2019-04-26T19:19:25.918Z,0.03
2019-04-26T19:21:23.894Z,0.00
2019-04-26T19:22:24.206Z,1.14
2019-04-26T19:23:28.963Z,1.49
2019-04-26T19:24:24.443Z,0.98
2019-04-26T19:25:25.466Z,0.39
2019-04-26T19:26:33.146Z,0.00
2019-04-26T19:27:26.787Z,0.48
2019-04-26T19:28:25.947Z,0.32
2019-04-26T19:29:32.836Z,0.74
2019-04-26T19:30:26.504Z,0.51
2019-04-26T19:31:27.453Z,0.17
2019-04-26T19:32:26.980Z,0.48
2019-04-26T19:33:27.436Z,0.80
2019-04-26T19:34:30.230Z,1.01
2019-04-26T19:35:28.401Z,0.57
2019-04-26T19:36:29.342Z,1.39
2019-04-26T19:37:30.467Z,1.25
2019-04-26T19:38:29.055Z,1.02
2019-04-26T19:39:33.225Z,0.31
2019-04-26T19:40:29.651Z,0.38
2019-04-26T19:41:31.511Z,0.38
2019-04-26T19:42:30.882Z,0.59
2019-04-26T19:43:35.011Z,0.90
2019-04-26T19:44:31.588Z,0.60
2019-04-26T19:45:31.569Z,0.84
2019-04-26T19:46:31.695Z,0.97
2019-04-26T19:47:35.423Z,0.63
2019-04-26T19:48:31.685Z,0.08
2019-04-26T19:49:33.488Z,0.69
2019-04-26T19:50:32.117Z,0.88
2019-04-26T19:51:32.810Z,0.59
2019-04-26T19:52:39.075Z,0.58
2019-04-26T19:53:33.180Z,0.57
2019-04-26T19:54:38.125Z,0.55
2019-04-26T19:55:33.700Z,0.07
2019-04-26T19:56:33.938Z,0.00
2019-04-26T19:57:38.850Z,0.34
2019-04-26T19:58:34.502Z,0.54
2019-04-26T19:59:34.890Z,0.11
2019-04-26T20:00:38.495Z,0.71
2019-04-26T20:01:35.653Z,0.59
2019-04-26T20:02:39.148Z,0.60
2019-04-26T20:03:36.159Z,0.13
2019-04-26T20:04:36.587Z,0.22
2019-04-26T20:05:40.501Z,1.16
2019-04-26T20:06:37.335Z,0.36
2019-04-26T20:07:37.834Z,0.14
2019-04-26T20:08:43.981Z,0.17
2019-04-26T20:09:38.322Z,0.24
2019-04-26T20:10:40.649Z,0.21
2019-04-26T20:11:39.081Z,0.04
2019-04-26T20:12:40.977Z,0.00
2019-04-26T20:13:39.605Z,0.00
2019-04-26T20:14:49.226Z,0.07
2019-04-26T20:15:40.215Z,0.25
2019-04-26T20:16:43.244Z,0.17
2019-04-26T20:17:40.925Z,0.72
2019-04-26T20:18:42.110Z,0.06
2019-04-26T20:19:42.641Z,0.00
2019-04-26T20:20:42.232Z,0.17
2019-04-26T20:21:45.519Z,0.03
2019-04-26T20:22:42.654Z,0.00
2019-04-26T20:23:47.212Z,0.00
2019-04-26T20:24:43.418Z,0.00
2019-04-26T20:25:43.550Z,0.00
2019-04-26T20:26:44.711Z,0.01
2019-04-26T20:27:44.307Z,0.53
2019-04-26T20:28:44.678Z,0.32
2019-04-26T20:29:47.324Z,0.01
2019-04-26T20:30:45.388Z,0.00
2019-04-26T20:31:47.772Z,0.49
2019-04-26T20:32:46.166Z,0.41
2019-04-26T20:33:47.818Z,0.74
2019-04-26T20:34:49.354Z,0.32
2019-04-26T20:35:47.074Z,0.00
2019-04-26T20:36:47.945Z,0.46
2019-04-26T20:37:47.869Z,0.80
2019-04-26T20:38:47.661Z,0.62
2019-04-26T20:39:47.974Z,0.90
2019-04-26T20:40:49.028Z,0.77
2019-04-26T20:42:00.737Z,0.27
2019-04-26T20:42:49.143Z,0.55
2019-04-26T20:44:04.305Z,0.43
2019-04-26T20:44:53.094Z,0.20
2019-04-26T20:46:08.793Z,0.01
2019-04-26T20:46:51.850Z,0.03
2019-04-26T20:47:51.859Z,0.38
2019-04-26T20:48:52.041Z,0.29
2019-04-26T20:50:00.634Z,0.14
2019-04-26T20:50:51.991Z,0.38
2019-04-26T20:51:51.884Z,0.35
2019-04-26T20:52:53.945Z,0.25
2019-04-26T20:53:51.704Z,0.62
2019-04-26T20:54:54.095Z,1.06
2019-04-26T20:55:52.915Z,1.35
2019-04-26T20:56:55.141Z,0.93
2019-04-26T20:57:52.344Z,0.45
2019-04-26T20:58:52.774Z,0.45
2019-04-26T21:00:01.616Z,0.24
2019-04-26T21:00:54.568Z,0.27
2019-04-26T21:02:03.029Z,0.96
2019-04-26T21:03:01.106Z,1.52
2019-04-26T21:03:54.039Z,0.89
2019-04-26T21:04:54.437Z,1.30
2019-04-26T21:05:59.270Z,1.15
2019-04-26T21:06:58.135Z,0.56
2019-04-26T21:07:54.978Z,0.60
2019-04-26T21:08:59.048Z,0.83
2019-04-26T21:09:56.577Z,0.62
2019-04-26T21:11:00.061Z,0.76
2019-04-26T21:11:57.007Z,0.35
2019-04-26T21:12:56.345Z,0.73
2019-04-26T21:13:56.597Z,0.24
2019-04-26T21:14:56.864Z,0.41
2019-04-26T21:15:58.753Z,0.34
2019-04-26T21:16:57.982Z,0.70
2019-04-26T21:18:02.723Z,1.16
2019-04-26T21:18:57.841Z,0.61
2019-04-26T21:19:58.652Z,0.55
2019-04-26T21:20:58.514Z,0.13
2019-04-26T21:21:58.799Z,0.03
2019-04-26T21:23:02.214Z,0.31
2019-04-26T21:24:01.615Z,0.36
2019-04-26T21:24:59.819Z,0.82
2019-04-26T21:26:02.778Z,1.45
2019-04-26T21:27:00.515Z,0.76
2019-04-26T21:28:02.375Z,1.13
2019-04-26T21:29:00.750Z,0.80
2019-04-26T21:30:03.140Z,0.68
2019-04-26T21:31:03.389Z,0.50
2019-04-26T21:32:01.766Z,0.90
2019-04-26T21:33:03.051Z,1.54
2019-04-26T21:34:03.698Z,0.63
2019-04-26T21:35:03.623Z,0.56
2019-04-26T21:36:05.844Z,0.21
2019-04-26T21:37:03.444Z,1.29
2019-04-26T21:38:03.595Z,0.83
2019-04-26T21:39:07.305Z,0.79
2019-04-26T21:40:03.962Z,1.46
2019-04-26T21:41:10.975Z,0.11
2019-04-26T21:42:04.466Z,0.39
2019-04-26T21:43:04.681Z,0.08
2019-04-26T21:44:07.670Z,0.08
2019-04-26T21:45:04.886Z,0.29
2019-04-26T21:46:18.730Z,0.08
2019-04-26T21:47:08.331Z,0.23
2019-04-26T21:48:06.869Z,0.35
2019-04-26T21:49:06.003Z,0.36
2019-04-26T21:50:06.547Z,0.04
2019-04-26T21:51:08.515Z,0.64
2019-04-26T21:52:06.905Z,0.31
2019-04-26T21:53:07.188Z,0.08
2019-04-26T21:54:06.956Z,0.32
2019-04-26T21:55:07.538Z,0.77
2019-04-26T21:56:07.602Z,0.35
2019-04-26T21:57:07.752Z,1.10
2019-04-26T21:58:08.042Z,1.49
2019-04-26T21:59:08.683Z,0.87
2019-04-26T22:00:08.934Z,0.94
2019-04-26T22:01:11.134Z,1.97
2019-04-26T22:02:09.668Z,2.01
2019-04-26T22:03:12.606Z,0.90
2019-04-26T22:04:09.969Z,0.86
2019-04-26T22:05:11.659Z,1.83
2019-04-26T22:06:10.345Z,0.59
2019-04-26T22:07:10.468Z,0.82
2019-04-26T22:08:10.734Z,0.80
2019-04-26T22:09:10.880Z,0.34
2019-04-26T22:10:11.438Z,1.03
2019-04-26T22:11:14.008Z,0.95
2019-04-26T22:12:13.082Z,0.38
2019-04-26T22:13:13.857Z,0.73
2019-04-26T22:14:19.513Z,0.53
2019-04-26T22:15:13.794Z,0.69
2019-04-26T22:16:30.604Z,0.67
2019-04-26T22:17:13.588Z,0.13
2019-04-26T22:18:15.320Z,0.69
2019-04-26T22:19:14.610Z,0.50
2019-04-26T22:20:16.152Z,0.01
2019-04-26T22:21:15.119Z,0.68
2019-04-26T22:22:15.459Z,0.21
2019-04-26T22:23:16.537Z,0.32
2019-04-26T22:24:15.990Z,0.00
2019-04-26T22:25:16.192Z,0.01
2019-04-26T22:26:16.686Z,0.11
2019-04-26T22:27:17.388Z,0.75
2019-04-26T22:28:16.894Z,0.80
2019-04-26T22:29:17.365Z,0.35
2019-04-26T22:30:17.571Z,0.86
2019-04-26T22:31:17.646Z,1.45
2019-04-26T22:32:19.228Z,1.04
2019-04-26T22:33:18.326Z,1.07
2019-04-26T22:34:18.727Z,0.79
2019-04-26T22:35:21.421Z,0.94
2019-04-26T22:36:19.018Z,0.72
2019-04-26T22:37:29.575Z,0.81
2019-04-26T22:38:23.690Z,1.12
2019-04-26T22:39:19.795Z,0.35
2019-04-26T22:40:20.080Z,0.01
2019-04-26T22:41:20.514Z,0.00
2019-04-26T22:42:20.909Z,0.03
2019-04-26T22:43:22.857Z,0.95
2019-04-26T22:44:24.914Z,0.84
2019-04-26T22:45:23.480Z,0.80
2019-04-26T22:46:28.313Z,0.93
2019-04-26T22:47:24.095Z,0.55
2019-04-26T22:48:25.448Z,0.55
2019-04-26T22:49:23.274Z,0.58
2019-04-26T22:50:25.081Z,1.01
2019-04-26T22:51:23.523Z,1.29
2019-04-26T22:52:23.927Z,1.39
2019-04-26T22:53:25.833Z,0.81
2019-04-26T22:54:25.010Z,0.52
2019-04-26T22:55:27.473Z,0.81
2019-04-26T22:56:25.253Z,0.18
2019-04-26T22:57:25.702Z,0.41
2019-04-26T22:58:28.834Z,0.76
2019-04-26T22:59:25.945Z,1.35
2019-04-26T23:00:29.461Z,0.46
2019-04-26T23:01:26.272Z,0.69
2019-04-26T23:02:27.711Z,0.72
2019-04-26T23:03:26.946Z,1.25
2019-04-26T23:04:26.901Z,0.76
2019-04-26T23:05:30.620Z,2.02
2019-04-26T23:06:27.675Z,1.18
2019-04-26T23:07:27.535Z,0.77
2019-04-26T23:08:30.706Z,0.00
2019-04-26T23:09:28.337Z,0.00
2019-04-26T23:10:31.014Z,0.31
2019-04-26T23:11:28.531Z,0.41
2019-04-26T23:12:28.644Z,0.58
2019-04-26T23:13:28.707Z,0.20
2019-04-26T23:14:29.143Z,0.46
2019-04-26T23:15:33.215Z,0.88
2019-04-26T23:16:29.711Z,0.42
2019-04-26T23:17:31.278Z,0.10
2019-04-26T23:18:29.799Z,0.68
2019-04-26T23:19:30.225Z,0.87
2019-04-26T23:20:34.414Z,0.52
2019-04-26T23:21:30.393Z,0.20
2019-04-26T23:22:31.932Z,0.80
2019-04-26T23:23:31.106Z,0.88
2019-04-26T23:24:30.942Z,0.15
2019-04-26T23:25:32.253Z,0.45
2019-04-26T23:26:33.447Z,0.18
2019-04-26T23:27:33.344Z,0.91
2019-04-26T23:28:36.838Z,0.87
2019-04-26T23:29:33.658Z,0.97
2019-04-26T23:30:33.200Z,1.37
2019-04-26T23:31:37.517Z,1.16
2019-04-26T23:32:33.944Z,1.20
2019-04-26T23:33:34.047Z,1.12
2019-04-26T23:34:34.312Z,0.84
2019-04-26T23:35:37.356Z,0.59
2019-04-26T23:36:34.962Z,0.39
2019-04-26T23:37:35.119Z,0.18
2019-04-26T23:38:37.356Z,0.06
2019-04-26T23:39:35.937Z,0.53
2019-04-26T23:40:35.946Z,0.44
2019-04-26T23:41:37.563Z,0.00
2019-04-26T23:42:36.532Z,0.88
2019-04-26T23:43:36.918Z,1.08
2019-04-26T23:44:40.184Z,1.88
2019-04-26T23:45:37.514Z,1.53
2019-04-26T23:46:37.897Z,0.73
2019-04-26T23:47:39.063Z,0.86
2019-04-26T23:48:37.992Z,0.93
2019-04-26T23:49:38.213Z,1.13
2019-04-26T23:50:38.038Z,0.80
2019-04-26T23:51:42.494Z,1.58
2019-04-26T23:52:38.929Z,0.97
2019-04-26T23:53:38.761Z,1.65
2019-04-26T23:54:39.183Z,0.35
2019-04-26T23:55:43.954Z,0.52
2019-04-26T23:56:39.201Z,0.41
2019-04-26T23:57:38.970Z,0.34
2019-04-26T23:58:40.223Z,0.35
2019-04-26T23:59:39.657Z,0.32
